sensor_id;sensor_type;location;lat;lon;timestamp;P1;durP1;ratioP1;P2;durP2;ratioP2
78197;SDS011;67472;51.554;7.812;2023-05-10T00:00:57;12.70;;;8.52;;
78197;SDS011;67472;51.554;7.812;2023-05-10T00:03:44;14.07;;;8.20;;
78197;SDS011;67472;51.554;7.812;2023-05-10T00:06:30;14.10;;;8.23;;
78197;SDS011;67472;51.554;7.812;2023-05-10T00:09:17;11.52;;;7.30;;
78197;SDS011;67472;51.554;7.812;2023-05-10T00:12:04;10.57;;;6.35;;
78197;SDS011;67472;51.554;7.812;2023-05-10T00:14:50;9.10;;;5.55;;
78197;SDS011;67472;51.554;7.812;2023-05-10T00:17:36;9.70;;;5.47;;
78197;SDS011;67472;51.554;7.812;2023-05-10T00:20:22;6.30;;;4.82;;
78197;SDS011;67472;51.554;7.812;2023-05-10T00:23:09;6.20;;;3.97;;
78197;SDS011;67472;51.554;7.812;2023-05-10T00:25:57;3.88;;;3.38;;
78197;SDS011;67472;51.554;7.812;2023-05-10T00:28:43;5.07;;;3.40;;
78197;SDS011;67472;51.554;7.812;2023-05-10T00:31:29;4.18;;;2.72;;
78197;SDS011;67472;51.554;7.812;2023-05-10T00:34:16;3.95;;;2.40;;
78197;SDS011;67472;51.554;7.812;2023-05-10T00:37:03;4.57;;;2.70;;
78197;SDS011;67472;51.554;7.812;2023-05-10T00:39:49;2.22;;;1.92;;
78197;SDS011;67472;51.554;7.812;2023-05-10T00:42:37;3.88;;;2.15;;
78197;SDS011;67472;51.554;7.812;2023-05-10T00:45:25;3.25;;;2.03;;
78197;SDS011;67472;51.554;7.812;2023-05-10T00:48:11;4.53;;;2.15;;
78197;SDS011;67472;51.554;7.812;2023-05-10T00:50:59;2.38;;;2.17;;
78197;SDS011;67472;51.554;7.812;2023-05-10T00:53:46;3.90;;;2.40;;
78197;SDS011;67472;51.554;7.812;2023-05-10T00:56:33;2.30;;;2.10;;
78197;SDS011;67472;51.554;7.812;2023-05-10T00:59:21;2.97;;;2.30;;
78197;SDS011;67472;51.554;7.812;2023-05-10T01:02:08;4.15;;;2.50;;
78197;SDS011;67472;51.554;7.812;2023-05-10T01:04:54;3.15;;;2.65;;
78197;SDS011;67472;51.554;7.812;2023-05-10T01:07:41;2.75;;;2.55;;
78197;SDS011;67472;51.554;7.812;2023-05-10T01:10:28;5.90;;;2.95;;
78197;SDS011;67472;51.554;7.812;2023-05-10T01:13:15;3.78;;;2.80;;
78197;SDS011;67472;51.554;7.812;2023-05-10T01:16:10;11.43;;;3.70;;
78197;SDS011;67472;51.554;7.812;2023-05-10T01:18:56;6.13;;;4.22;;
78197;SDS011;67472;51.554;7.812;2023-05-10T01:21:44;4.40;;;4.00;;
78197;SDS011;67472;51.554;7.812;2023-05-10T01:24:49;4.53;;;3.70;;
78197;SDS011;67472;51.554;7.812;2023-05-10T01:28:04;4.32;;;3.92;;
78197;SDS011;67472;51.554;7.812;2023-05-10T01:31:06;5.53;;;4.28;;
78197;SDS011;67472;51.554;7.812;2023-05-10T01:34:01;5.07;;;3.90;;
78197;SDS011;67472;51.554;7.812;2023-05-10T01:36:54;8.95;;;4.28;;
78197;SDS011;67472;51.554;7.812;2023-05-10T01:39:49;4.93;;;4.00;;
78197;SDS011;67472;51.554;7.812;2023-05-10T01:42:46;6.40;;;4.70;;
78197;SDS011;67472;51.554;7.812;2023-05-10T01:45:38;8.55;;;5.70;;
78197;SDS011;67472;51.554;7.812;2023-05-10T01:48:32;6.20;;;5.60;;
78197;SDS011;67472;51.554;7.812;2023-05-10T01:51:22;10.95;;;6.90;;
78197;SDS011;67472;51.554;7.812;2023-05-10T01:54:11;10.68;;;7.53;;
78197;SDS011;67472;51.554;7.812;2023-05-10T01:57:01;10.07;;;7.35;;
78197;SDS011;67472;51.554;7.812;2023-05-10T01:59:52;9.98;;;7.47;;
78197;SDS011;67472;51.554;7.812;2023-05-10T02:02:40;12.30;;;8.27;;
78197;SDS011;67472;51.554;7.812;2023-05-10T02:05:30;9.18;;;7.45;;
78197;SDS011;67472;51.554;7.812;2023-05-10T02:08:20;13.80;;;9.00;;
78197;SDS011;67472;51.554;7.812;2023-05-10T02:11:07;13.73;;;8.65;;
78197;SDS011;67472;51.554;7.812;2023-05-10T02:13:57;15.05;;;10.63;;
78197;SDS011;67472;51.554;7.812;2023-05-10T02:16:47;11.68;;;9.15;;
78197;SDS011;67472;51.554;7.812;2023-05-10T02:19:36;14.77;;;9.73;;
78197;SDS011;67472;51.554;7.812;2023-05-10T02:22:24;17.02;;;11.10;;
78197;SDS011;67472;51.554;7.812;2023-05-10T02:25:13;14.70;;;10.27;;
78197;SDS011;67472;51.554;7.812;2023-05-10T02:28:01;17.45;;;10.15;;
78197;SDS011;67472;51.554;7.812;2023-05-10T02:30:50;16.50;;;11.20;;
78197;SDS011;67472;51.554;7.812;2023-05-10T02:33:38;17.00;;;10.75;;
78197;SDS011;67472;51.554;7.812;2023-05-10T02:36:26;18.85;;;11.57;;
78197;SDS011;67472;51.554;7.812;2023-05-10T02:39:13;20.58;;;11.48;;
78197;SDS011;67472;51.554;7.812;2023-05-10T02:42:03;17.45;;;11.18;;
78197;SDS011;67472;51.554;7.812;2023-05-10T02:44:51;19.65;;;12.70;;
78197;SDS011;67472;51.554;7.812;2023-05-10T02:47:41;18.13;;;10.73;;
78197;SDS011;67472;51.554;7.812;2023-05-10T02:50:28;17.85;;;10.75;;
78197;SDS011;67472;51.554;7.812;2023-05-10T02:53:18;15.07;;;9.85;;
78197;SDS011;67472;51.554;7.812;2023-05-10T02:56:12;15.57;;;9.43;;
78197;SDS011;67472;51.554;7.812;2023-05-10T02:59:07;16.10;;;9.68;;
78197;SDS011;67472;51.554;7.812;2023-05-10T03:01:53;13.02;;;9.13;;
78197;SDS011;67472;51.554;7.812;2023-05-10T03:04:39;11.95;;;9.05;;
78197;SDS011;67472;51.554;7.812;2023-05-10T03:07:26;11.57;;;7.85;;
78197;SDS011;67472;51.554;7.812;2023-05-10T03:10:12;9.95;;;7.15;;
78197;SDS011;67472;51.554;7.812;2023-05-10T03:13:06;8.15;;;5.45;;
78197;SDS011;67472;51.554;7.812;2023-05-10T03:16:01;10.38;;;5.80;;
78197;SDS011;67472;51.554;7.812;2023-05-10T03:18:54;6.75;;;5.00;;
78197;SDS011;67472;51.554;7.812;2023-05-10T03:21:47;5.50;;;4.40;;
78197;SDS011;67472;51.554;7.812;2023-05-10T03:24:38;7.00;;;4.22;;
78197;SDS011;67472;51.554;7.812;2023-05-10T03:27:27;6.78;;;3.30;;
78197;SDS011;67472;51.554;7.812;2023-05-10T03:30:15;3.95;;;3.30;;
78197;SDS011;67472;51.554;7.812;2023-05-10T03:33:05;2.47;;;2.25;;
78197;SDS011;67472;51.554;7.812;2023-05-10T03:35:55;2.13;;;1.90;;
78197;SDS011;67472;51.554;7.812;2023-05-10T03:38:41;3.50;;;2.30;;
78197;SDS011;67472;51.554;7.812;2023-05-10T03:41:27;6.50;;;3.13;;
78197;SDS011;67472;51.554;7.812;2023-05-10T03:44:13;3.63;;;2.92;;
78197;SDS011;67472;51.554;7.812;2023-05-10T03:47:00;5.18;;;3.35;;
78197;SDS011;67472;51.554;7.812;2023-05-10T03:49:48;6.57;;;3.25;;
78197;SDS011;67472;51.554;7.812;2023-05-10T03:52:34;4.85;;;4.05;;
78197;SDS011;67472;51.554;7.812;2023-05-10T03:55:20;5.18;;;4.10;;
78197;SDS011;67472;51.554;7.812;2023-05-10T03:58:10;9.00;;;4.60;;
78197;SDS011;67472;51.554;7.812;2023-05-10T04:00:56;5.35;;;4.50;;
78197;SDS011;67472;51.554;7.812;2023-05-10T04:03:43;5.68;;;3.50;;
78197;SDS011;67472;51.554;7.812;2023-05-10T04:06:32;6.32;;;3.30;;
78197;SDS011;67472;51.554;7.812;2023-05-10T04:09:18;8.43;;;3.35;;
78197;SDS011;67472;51.554;7.812;2023-05-10T04:12:04;4.05;;;2.88;;
78197;SDS011;67472;51.554;7.812;2023-05-10T04:14:51;2.33;;;2.13;;
78197;SDS011;67472;51.554;7.812;2023-05-10T04:17:38;5.20;;;1.95;;
78197;SDS011;67472;51.554;7.812;2023-05-10T04:20:24;3.38;;;1.58;;
78197;SDS011;67472;51.554;7.812;2023-05-10T04:23:12;2.63;;;1.85;;
78197;SDS011;67472;51.554;7.812;2023-05-10T04:25:59;3.47;;;1.67;;
78197;SDS011;67472;51.554;7.812;2023-05-10T04:28:46;2.00;;;1.65;;
78197;SDS011;67472;51.554;7.812;2023-05-10T04:31:32;1.63;;;1.52;;
78197;SDS011;67472;51.554;7.812;2023-05-10T04:34:20;4.22;;;2.33;;
78197;SDS011;67472;51.554;7.812;2023-05-10T04:37:07;4.40;;;2.60;;
78197;SDS011;67472;51.554;7.812;2023-05-10T04:39:55;3.70;;;2.80;;
78197;SDS011;67472;51.554;7.812;2023-05-10T04:42:41;6.35;;;2.85;;
78197;SDS011;67472;51.554;7.812;2023-05-10T04:45:29;3.35;;;2.85;;
78197;SDS011;67472;51.554;7.812;2023-05-10T04:48:15;5.50;;;4.20;;
78197;SDS011;67472;51.554;7.812;2023-05-10T04:51:02;4.30;;;3.58;;
78197;SDS011;67472;51.554;7.812;2023-05-10T04:53:49;6.65;;;4.90;;
78197;SDS011;67472;51.554;7.812;2023-05-10T04:56:37;5.45;;;4.45;;
78197;SDS011;67472;51.554;7.812;2023-05-10T04:59:23;8.50;;;4.68;;
78197;SDS011;67472;51.554;7.812;2023-05-10T05:02:09;6.72;;;5.07;;
78197;SDS011;67472;51.554;7.812;2023-05-10T05:04:55;8.25;;;5.05;;
78197;SDS011;67472;51.554;7.812;2023-05-10T05:07:43;6.38;;;5.10;;
78197;SDS011;67472;51.554;7.812;2023-05-10T05:10:29;8.20;;;5.15;;
78197;SDS011;67472;51.554;7.812;2023-05-10T05:13:17;12.88;;;6.78;;
78197;SDS011;67472;51.554;7.812;2023-05-10T05:16:03;13.50;;;7.13;;
78197;SDS011;67472;51.554;7.812;2023-05-10T05:18:50;10.82;;;7.88;;
78197;SDS011;67472;51.554;7.812;2023-05-10T05:21:36;10.00;;;8.07;;
78197;SDS011;67472;51.554;7.812;2023-05-10T05:24:22;16.80;;;9.68;;
78197;SDS011;67472;51.554;7.812;2023-05-10T05:27:09;14.88;;;9.23;;
78197;SDS011;67472;51.554;7.812;2023-05-10T05:29:56;13.55;;;9.85;;
78197;SDS011;67472;51.554;7.812;2023-05-10T05:32:43;17.17;;;9.82;;
78197;SDS011;67472;51.554;7.812;2023-05-10T05:35:29;14.27;;;10.48;;
78197;SDS011;67472;51.554;7.812;2023-05-10T05:38:15;18.65;;;11.40;;
78197;SDS011;67472;51.554;7.812;2023-05-10T05:41:02;20.38;;;12.10;;
78197;SDS011;67472;51.554;7.812;2023-05-10T05:43:48;21.40;;;12.45;;
78197;SDS011;67472;51.554;7.812;2023-05-10T05:46:36;19.40;;;12.75;;
78197;SDS011;67472;51.554;7.812;2023-05-10T05:49:22;22.00;;;12.95;;
78197;SDS011;67472;51.554;7.812;2023-05-10T05:52:08;22.10;;;13.02;;
78197;SDS011;67472;51.554;7.812;2023-05-10T05:54:54;22.17;;;12.43;;
78197;SDS011;67472;51.554;7.812;2023-05-10T05:57:40;22.48;;;12.90;;
78197;SDS011;67472;51.554;7.812;2023-05-10T06:00:27;21.73;;;13.38;;
78197;SDS011;67472;51.554;7.812;2023-05-10T06:03:15;21.08;;;13.48;;
78197;SDS011;67472;51.554;7.812;2023-05-10T06:06:04;24.33;;;14.88;;
78197;SDS011;67472;51.554;7.812;2023-05-10T06:08:51;25.65;;;16.15;;
78197;SDS011;67472;51.554;7.812;2023-05-10T06:11:37;29.77;;;18.23;;
78197;SDS011;67472;51.554;7.812;2023-05-10T06:14:23;28.92;;;17.35;;
78197;SDS011;67472;51.554;7.812;2023-05-10T06:17:09;32.33;;;18.48;;
78197;SDS011;67472;51.554;7.812;2023-05-10T06:19:57;29.33;;;18.80;;
78197;SDS011;67472;51.554;7.812;2023-05-10T06:22:43;32.08;;;19.02;;
78197;SDS011;67472;51.554;7.812;2023-05-10T06:25:29;30.42;;;19.35;;
78197;SDS011;67472;51.554;7.812;2023-05-10T06:28:15;31.77;;;18.65;;
78197;SDS011;67472;51.554;7.812;2023-05-10T06:31:01;36.95;;;20.52;;
78197;SDS011;67472;51.554;7.812;2023-05-10T06:33:48;37.40;;;21.20;;
78197;SDS011;67472;51.554;7.812;2023-05-10T06:36:36;33.47;;;19.95;;
78197;SDS011;67472;51.554;7.812;2023-05-10T06:39:22;33.70;;;20.27;;
78197;SDS011;67472;51.554;7.812;2023-05-10T06:42:08;38.65;;;22.48;;
78197;SDS011;67472;51.554;7.812;2023-05-10T06:44:55;41.47;;;23.23;;
78197;SDS011;67472;51.554;7.812;2023-05-10T06:47:41;40.33;;;23.77;;
78197;SDS011;67472;51.554;7.812;2023-05-10T06:50:28;40.80;;;22.88;;
78197;SDS011;67472;51.554;7.812;2023-05-10T06:53:15;48.15;;;24.50;;
78197;SDS011;67472;51.554;7.812;2023-05-10T06:56:02;38.83;;;21.35;;
78197;SDS011;67472;51.554;7.812;2023-05-10T06:58:49;43.55;;;22.55;;
78197;SDS011;67472;51.554;7.812;2023-05-10T07:01:35;44.78;;;24.73;;
78197;SDS011;67472;51.554;7.812;2023-05-10T07:04:21;44.50;;;24.42;;
78197;SDS011;67472;51.554;7.812;2023-05-10T07:07:08;45.47;;;25.50;;
78197;SDS011;67472;51.554;7.812;2023-05-10T07:09:55;42.33;;;24.42;;
78197;SDS011;67472;51.554;7.812;2023-05-10T07:12:42;37.55;;;23.58;;
78197;SDS011;67472;51.554;7.812;2023-05-10T07:15:29;43.47;;;24.70;;
78197;SDS011;67472;51.554;7.812;2023-05-10T07:18:15;46.15;;;26.38;;
78197;SDS011;67472;51.554;7.812;2023-05-10T07:21:01;45.55;;;24.10;;
78197;SDS011;67472;51.554;7.812;2023-05-10T07:23:48;45.47;;;23.88;;
78197;SDS011;67472;51.554;7.812;2023-05-10T07:26:36;44.80;;;23.27;;
78197;SDS011;67472;51.554;7.812;2023-05-10T07:29:22;40.17;;;24.25;;
78197;SDS011;67472;51.554;7.812;2023-05-10T07:32:08;39.63;;;24.27;;
78197;SDS011;67472;51.554;7.812;2023-05-10T07:34:54;41.17;;;24.98;;
78197;SDS011;67472;51.554;7.812;2023-05-10T07:37:41;40.53;;;23.40;;
78197;SDS011;67472;51.554;7.812;2023-05-10T07:40:27;38.00;;;23.55;;
78197;SDS011;67472;51.554;7.812;2023-05-10T07:43:15;49.50;;;25.20;;
78197;SDS011;67472;51.554;7.812;2023-05-10T07:46:01;41.83;;;25.08;;
78197;SDS011;67472;51.554;7.812;2023-05-10T07:48:48;48.13;;;26.25;;
78197;SDS011;67472;51.554;7.812;2023-05-10T07:51:34;42.65;;;24.25;;
78197;SDS011;67472;51.554;7.812;2023-05-10T07:54:20;48.15;;;26.02;;
78197;SDS011;67472;51.554;7.812;2023-05-10T07:57:07;41.92;;;25.23;;
78197;SDS011;67472;51.554;7.812;2023-05-10T07:59:54;42.95;;;25.58;;
78197;SDS011;67472;51.554;7.812;2023-05-10T08:02:40;42.28;;;25.92;;
78197;SDS011;67472;51.554;7.812;2023-05-10T08:05:26;48.00;;;26.02;;
78197;SDS011;67472;51.554;7.812;2023-05-10T08:08:12;40.60;;;26.30;;
78197;SDS011;67472;51.554;7.812;2023-05-10T08:10:59;39.80;;;25.77;;
78197;SDS011;67472;51.554;7.812;2023-05-10T08:13:45;46.10;;;28.58;;
78197;SDS011;67472;51.554;7.812;2023-05-10T08:16:33;45.08;;;27.48;;
78197;SDS011;67472;51.554;7.812;2023-05-10T08:19:20;45.58;;;24.42;;
78197;SDS011;67472;51.554;7.812;2023-05-10T08:22:07;42.35;;;25.50;;
78197;SDS011;67472;51.554;7.812;2023-05-10T08:24:53;39.28;;;24.05;;
78197;SDS011;67472;51.554;7.812;2023-05-10T08:27:39;38.25;;;24.90;;
78197;SDS011;67472;51.554;7.812;2023-05-10T08:30:26;35.63;;;24.25;;
78197;SDS011;67472;51.554;7.812;2023-05-10T08:33:13;40.20;;;23.92;;
78197;SDS011;67472;51.554;7.812;2023-05-10T08:36:00;33.88;;;22.00;;
78197;SDS011;67472;51.554;7.812;2023-05-10T08:38:46;35.35;;;20.73;;
78197;SDS011;67472;51.554;7.812;2023-05-10T08:41:32;32.67;;;20.98;;
78197;SDS011;67472;51.554;7.812;2023-05-10T08:44:19;28.67;;;19.55;;
78197;SDS011;67472;51.554;7.812;2023-05-10T08:47:06;30.95;;;19.90;;
78197;SDS011;67472;51.554;7.812;2023-05-10T08:49:54;30.50;;;18.73;;
78197;SDS011;67472;51.554;7.812;2023-05-10T08:52:42;29.65;;;18.15;;
78197;SDS011;67472;51.554;7.812;2023-05-10T08:55:32;25.58;;;17.02;;
78197;SDS011;67472;51.554;7.812;2023-05-10T08:58:21;24.75;;;17.50;;
78197;SDS011;67472;51.554;7.812;2023-05-10T09:01:08;27.98;;;16.92;;
78197;SDS011;67472;51.554;7.812;2023-05-10T09:03:55;26.42;;;17.63;;
78197;SDS011;67472;51.554;7.812;2023-05-10T09:06:43;25.83;;;18.70;;
78197;SDS011;67472;51.554;7.812;2023-05-10T09:09:29;32.40;;;20.58;;
78197;SDS011;67472;51.554;7.812;2023-05-10T09:12:16;32.40;;;18.35;;
78197;SDS011;67472;51.554;7.812;2023-05-10T09:15:03;26.75;;;16.50;;
78197;SDS011;67472;51.554;7.812;2023-05-10T09:17:51;30.17;;;16.38;;
78197;SDS011;67472;51.554;7.812;2023-05-10T09:20:38;26.80;;;16.85;;
78197;SDS011;67472;51.554;7.812;2023-05-10T09:23:26;29.60;;;17.95;;
78197;SDS011;67472;51.554;7.812;2023-05-10T09:26:17;30.67;;;18.60;;
78197;SDS011;67472;51.554;7.812;2023-05-10T09:29:08;23.92;;;16.13;;
78197;SDS011;67472;51.554;7.812;2023-05-10T09:31:54;25.25;;;17.92;;
78197;SDS011;67472;51.554;7.812;2023-05-10T09:34:40;23.38;;;15.23;;
78197;SDS011;67472;51.554;7.812;2023-05-10T09:37:29;24.75;;;16.40;;
78197;SDS011;67472;51.554;7.812;2023-05-10T09:40:17;22.95;;;15.43;;
78197;SDS011;67472;51.554;7.812;2023-05-10T09:43:05;27.35;;;15.75;;
78197;SDS011;67472;51.554;7.812;2023-05-10T09:45:52;17.80;;;12.90;;
78197;SDS011;67472;51.554;7.812;2023-05-10T09:48:40;19.77;;;13.52;;
78197;SDS011;67472;51.554;7.812;2023-05-10T09:51:28;20.73;;;13.18;;
78197;SDS011;67472;51.554;7.812;2023-05-10T09:54:15;22.55;;;13.65;;
78197;SDS011;67472;51.554;7.812;2023-05-10T09:57:03;20.33;;;12.70;;
78197;SDS011;67472;51.554;7.812;2023-05-10T09:59:49;19.05;;;11.98;;
78197;SDS011;67472;51.554;7.812;2023-05-10T10:02:38;18.77;;;11.50;;
78197;SDS011;67472;51.554;7.812;2023-05-10T10:05:27;19.70;;;11.32;;
78197;SDS011;67472;51.554;7.812;2023-05-10T10:08:14;20.92;;;12.25;;
78197;SDS011;67472;51.554;7.812;2023-05-10T10:11:01;15.48;;;9.93;;
78197;SDS011;67472;51.554;7.812;2023-05-10T10:13:49;17.20;;;11.88;;
78197;SDS011;67472;51.554;7.812;2023-05-10T10:16:35;17.88;;;12.77;;
78197;SDS011;67472;51.554;7.812;2023-05-10T10:19:22;22.90;;;14.75;;
78197;SDS011;67472;51.554;7.812;2023-05-10T10:22:08;27.70;;;14.75;;
78197;SDS011;67472;51.554;7.812;2023-05-10T10:24:56;24.80;;;14.50;;
78197;SDS011;67472;51.554;7.812;2023-05-10T10:27:45;23.17;;;14.18;;
78197;SDS011;67472;51.554;7.812;2023-05-10T10:30:43;25.77;;;13.48;;
78197;SDS011;67472;51.554;7.812;2023-05-10T10:33:39;20.58;;;13.02;;
78197;SDS011;67472;51.554;7.812;2023-05-10T10:36:39;23.75;;;14.80;;
78197;SDS011;67472;51.554;7.812;2023-05-10T10:39:26;19.13;;;12.45;;
78197;SDS011;67472;51.554;7.812;2023-05-10T10:42:12;20.10;;;13.48;;
78197;SDS011;67472;51.554;7.812;2023-05-10T10:45:11;21.27;;;13.18;;
78197;SDS011;67472;51.554;7.812;2023-05-10T10:51:09;21.25;;;12.40;;
78197;SDS011;67472;51.554;7.812;2023-05-10T10:53:55;15.93;;;10.23;;
78197;SDS011;67472;51.554;7.812;2023-05-10T11:03:05;11.88;;;9.75;;
78197;SDS011;67472;51.554;7.812;2023-05-10T11:05:58;17.10;;;11.25;;
78197;SDS011;67472;51.554;7.812;2023-05-10T11:08:46;13.23;;;9.30;;
78197;SDS011;67472;51.554;7.812;2023-05-10T11:11:34;11.85;;;8.23;;
78197;SDS011;67472;51.554;7.812;2023-05-10T11:14:20;12.07;;;9.00;;
78197;SDS011;67472;51.554;7.812;2023-05-10T11:17:24;14.95;;;9.65;;
78197;SDS011;67472;51.554;7.812;2023-05-10T11:20:11;13.45;;;8.43;;
78197;SDS011;67472;51.554;7.812;2023-05-10T11:23:11;12.27;;;8.10;;
78197;SDS011;67472;51.554;7.812;2023-05-10T11:26:00;8.60;;;6.30;;
78197;SDS011;67472;51.554;7.812;2023-05-10T11:28:47;11.18;;;6.22;;
78197;SDS011;67472;51.554;7.812;2023-05-10T11:31:34;9.90;;;6.20;;
78197;SDS011;67472;51.554;7.812;2023-05-10T11:34:23;8.90;;;6.43;;
78197;SDS011;67472;51.554;7.812;2023-05-10T11:37:11;7.13;;;5.65;;
78197;SDS011;67472;51.554;7.812;2023-05-10T11:39:59;10.07;;;5.57;;
78197;SDS011;67472;51.554;7.812;2023-05-10T11:42:46;8.75;;;5.88;;
78197;SDS011;67472;51.554;7.812;2023-05-10T11:45:33;12.68;;;7.28;;
78197;SDS011;67472;51.554;7.812;2023-05-10T11:48:19;12.77;;;6.97;;
78197;SDS011;67472;51.554;7.812;2023-05-10T11:51:08;11.73;;;6.55;;
78197;SDS011;67472;51.554;7.812;2023-05-10T11:53:56;9.00;;;6.60;;
78197;SDS011;67472;51.554;7.812;2023-05-10T11:56:44;9.65;;;6.05;;
78197;SDS011;67472;51.554;7.812;2023-05-10T11:59:30;9.98;;;6.38;;
78197;SDS011;67472;51.554;7.812;2023-05-10T12:02:16;12.95;;;7.55;;
78197;SDS011;67472;51.554;7.812;2023-05-10T12:05:03;15.23;;;8.63;;
78197;SDS011;67472;51.554;7.812;2023-05-10T12:07:50;18.42;;;10.35;;
78197;SDS011;67472;51.554;7.812;2023-05-10T12:10:36;20.17;;;10.20;;
78197;SDS011;67472;51.554;7.812;2023-05-10T12:13:24;18.85;;;11.63;;
78197;SDS011;67472;51.554;7.812;2023-05-10T12:16:13;16.85;;;10.45;;
78197;SDS011;67472;51.554;7.812;2023-05-10T12:19:00;16.73;;;10.32;;
78197;SDS011;67472;51.554;7.812;2023-05-10T12:21:47;17.42;;;10.05;;
78197;SDS011;67472;51.554;7.812;2023-05-10T12:24:34;17.25;;;9.18;;
78197;SDS011;67472;51.554;7.812;2023-05-10T12:27:20;14.43;;;9.48;;
78197;SDS011;67472;51.554;7.812;2023-05-10T12:30:09;17.58;;;9.13;;
78197;SDS011;67472;51.554;7.812;2023-05-10T12:32:59;16.33;;;9.48;;
78197;SDS011;67472;51.554;7.812;2023-05-10T12:35:46;15.73;;;10.05;;
78197;SDS011;67472;51.554;7.812;2023-05-10T12:38:35;16.90;;;9.73;;
78197;SDS011;67472;51.554;7.812;2023-05-10T12:41:22;15.18;;;11.15;;
78197;SDS011;67472;51.554;7.812;2023-05-10T12:44:09;15.43;;;12.05;;
78197;SDS011;67472;51.554;7.812;2023-05-10T12:46:57;17.10;;;12.00;;
78197;SDS011;67472;51.554;7.812;2023-05-10T12:49:43;13.07;;;11.05;;
78197;SDS011;67472;51.554;7.812;2023-05-10T12:52:29;16.27;;;11.27;;
78197;SDS011;67472;51.554;7.812;2023-05-10T12:55:17;17.10;;;12.07;;
78197;SDS011;67472;51.554;7.812;2023-05-10T12:58:03;15.77;;;11.57;;
78197;SDS011;67472;51.554;7.812;2023-05-10T13:00:49;18.60;;;12.43;;
78197;SDS011;67472;51.554;7.812;2023-05-10T13:03:38;24.60;;;11.70;;
78197;SDS011;67472;51.554;7.812;2023-05-10T13:06:27;15.98;;;10.75;;
78197;SDS011;67472;51.554;7.812;2023-05-10T13:09:14;13.80;;;10.38;;
78197;SDS011;67472;51.554;7.812;2023-05-10T13:12:00;15.57;;;10.02;;
78197;SDS011;67472;51.554;7.812;2023-05-10T13:14:47;11.95;;;8.88;;
78197;SDS011;67472;51.554;7.812;2023-05-10T13:17:35;13.73;;;9.40;;
78197;SDS011;67472;51.554;7.812;2023-05-10T13:20:24;16.48;;;9.77;;
78197;SDS011;67472;51.554;7.812;2023-05-10T13:23:11;13.40;;;8.73;;
78197;SDS011;67472;51.554;7.812;2023-05-10T13:25:57;13.90;;;9.55;;
78197;SDS011;67472;51.554;7.812;2023-05-10T13:28:43;17.08;;;9.02;;
78197;SDS011;67472;51.554;7.812;2023-05-10T13:31:30;11.70;;;8.32;;
78197;SDS011;67472;51.554;7.812;2023-05-10T13:34:16;15.52;;;8.68;;
78197;SDS011;67472;51.554;7.812;2023-05-10T13:37:06;12.57;;;9.00;;
78197;SDS011;67472;51.554;7.812;2023-05-10T13:39:52;12.00;;;8.15;;
78197;SDS011;67472;51.554;7.812;2023-05-10T13:42:38;10.65;;;8.25;;
78197;SDS011;67472;51.554;7.812;2023-05-10T13:45:24;10.52;;;6.88;;
78197;SDS011;67472;51.554;7.812;2023-05-10T13:48:10;8.10;;;6.95;;
78197;SDS011;67472;51.554;7.812;2023-05-10T13:50:56;9.43;;;7.43;;
78197;SDS011;67472;51.554;7.812;2023-05-10T13:53:44;10.07;;;7.60;;
78197;SDS011;67472;51.554;7.812;2023-05-10T13:56:33;12.10;;;7.90;;
78197;SDS011;67472;51.554;7.812;2023-05-10T13:59:22;12.18;;;8.13;;
78197;SDS011;67472;51.554;7.812;2023-05-10T14:02:08;14.98;;;8.40;;
78197;SDS011;67472;51.554;7.812;2023-05-10T14:04:55;10.52;;;7.50;;
78197;SDS011;67472;51.554;7.812;2023-05-10T14:07:41;12.68;;;9.13;;
78197;SDS011;67472;51.554;7.812;2023-05-10T14:10:28;13.00;;;8.65;;
78197;SDS011;67472;51.554;7.812;2023-05-10T14:13:15;14.07;;;8.43;;
78197;SDS011;67472;51.554;7.812;2023-05-10T14:16:02;9.77;;;8.02;;
78197;SDS011;67472;51.554;7.812;2023-05-10T14:18:48;11.98;;;7.78;;
78197;SDS011;67472;51.554;7.812;2023-05-10T14:21:34;11.85;;;7.70;;
78197;SDS011;67472;51.554;7.812;2023-05-10T14:24:20;11.98;;;7.70;;
78197;SDS011;67472;51.554;7.812;2023-05-10T14:27:08;13.73;;;7.30;;
78197;SDS011;67472;51.554;7.812;2023-05-10T14:29:56;11.20;;;8.40;;
78197;SDS011;67472;51.554;7.812;2023-05-10T14:32:42;13.48;;;10.43;;
78197;SDS011;67472;51.554;7.812;2023-05-10T14:35:28;13.57;;;8.95;;
78197;SDS011;67472;51.554;7.812;2023-05-10T14:38:16;16.63;;;8.85;;
78197;SDS011;67472;51.554;7.812;2023-05-10T14:41:02;13.07;;;9.35;;
78197;SDS011;67472;51.554;7.812;2023-05-10T14:43:50;11.05;;;9.45;;
78197;SDS011;67472;51.554;7.812;2023-05-10T14:46:36;11.40;;;8.77;;
78197;SDS011;67472;51.554;7.812;2023-05-10T14:49:23;12.75;;;7.93;;
78197;SDS011;67472;51.554;7.812;2023-05-10T14:52:10;8.80;;;6.65;;
78197;SDS011;67472;51.554;7.812;2023-05-10T14:54:57;10.23;;;7.43;;
78197;SDS011;67472;51.554;7.812;2023-05-10T14:57:45;11.73;;;6.55;;
78197;SDS011;67472;51.554;7.812;2023-05-10T15:00:35;6.90;;;5.70;;
78197;SDS011;67472;51.554;7.812;2023-05-10T15:03:22;8.13;;;6.45;;
78197;SDS011;67472;51.554;7.812;2023-05-10T15:06:10;9.52;;;7.28;;
78197;SDS011;67472;51.554;7.812;2023-05-10T15:08:59;8.75;;;6.68;;
78197;SDS011;67472;51.554;7.812;2023-05-10T15:11:46;10.65;;;6.65;;
78197;SDS011;67472;51.554;7.812;2023-05-10T15:14:32;6.75;;;5.30;;
78197;SDS011;67472;51.554;7.812;2023-05-10T15:17:22;8.73;;;6.72;;
78197;SDS011;67472;51.554;7.812;2023-05-10T15:20:08;8.43;;;6.63;;
78197;SDS011;67472;51.554;7.812;2023-05-10T15:22:54;13.88;;;7.03;;
78197;SDS011;67472;51.554;7.812;2023-05-10T15:25:41;7.28;;;6.55;;
78197;SDS011;67472;51.554;7.812;2023-05-10T15:28:27;8.98;;;6.07;;
78197;SDS011;67472;51.554;7.812;2023-05-10T15:31:14;9.10;;;7.07;;
78197;SDS011;67472;51.554;7.812;2023-05-10T15:34:01;11.45;;;7.20;;
78197;SDS011;67472;51.554;7.812;2023-05-10T15:36:48;11.48;;;7.32;;
78197;SDS011;67472;51.554;7.812;2023-05-10T15:39:34;8.65;;;6.63;;
78197;SDS011;67472;51.554;7.812;2023-05-10T15:42:20;7.65;;;6.13;;
78197;SDS011;67472;51.554;7.812;2023-05-10T15:45:07;7.38;;;6.43;;
78197;SDS011;67472;51.554;7.812;2023-05-10T15:47:54;9.90;;;6.18;;
78197;SDS011;67472;51.554;7.812;2023-05-10T15:50:41;9.07;;;7.05;;
78197;SDS011;67472;51.554;7.812;2023-05-10T15:53:28;7.25;;;5.75;;
78197;SDS011;67472;51.554;7.812;2023-05-10T15:56:14;7.20;;;6.05;;
78197;SDS011;67472;51.554;7.812;2023-05-10T15:59:00;7.25;;;6.00;;
78197;SDS011;67472;51.554;7.812;2023-05-10T16:01:47;8.52;;;5.82;;
78197;SDS011;67472;51.554;7.812;2023-05-10T16:04:34;9.23;;;5.80;;
78197;SDS011;67472;51.554;7.812;2023-05-10T16:07:22;7.20;;;5.80;;
78197;SDS011;67472;51.554;7.812;2023-05-10T16:10:09;7.55;;;6.43;;
78197;SDS011;67472;51.554;7.812;2023-05-10T16:12:56;5.57;;;5.07;;
78197;SDS011;67472;51.554;7.812;2023-05-10T16:15:43;7.68;;;5.43;;
78197;SDS011;67472;51.554;7.812;2023-05-10T16:18:30;6.38;;;4.70;;
78197;SDS011;67472;51.554;7.812;2023-05-10T16:21:16;7.30;;;5.30;;
78197;SDS011;67472;51.554;7.812;2023-05-10T16:24:04;8.93;;;6.82;;
78197;SDS011;67472;51.554;7.812;2023-05-10T16:26:50;7.45;;;6.22;;
78197;SDS011;67472;51.554;7.812;2023-05-10T16:29:36;5.30;;;4.80;;
78197;SDS011;67472;51.554;7.812;2023-05-10T16:32:22;6.95;;;5.03;;
78197;SDS011;67472;51.554;7.812;2023-05-10T16:35:09;6.80;;;4.93;;
78197;SDS011;67472;51.554;7.812;2023-05-10T16:37:55;6.25;;;4.10;;
78197;SDS011;67472;51.554;7.812;2023-05-10T16:40:44;6.40;;;4.85;;
78197;SDS011;67472;51.554;7.812;2023-05-10T16:43:31;6.18;;;4.88;;